CA-0335 weather

CLOSED Sherman Meadows Airport
Alberta, Canada

Public forecast

Using degrees Celsius for public forecast. Weather courtesy of forecast.io.

METAR (pilot weather report)

Closest report is Grande Prairie Airport, 63.1 nm (116.8 km) NNE. Retrieved 2019/08/23 01:00 UTC (24 minutes ago):

CYQU 230100Z 25008G15KT 25SM SCT070 17/04 A2994 RMK AC4 SLP151 DENSITY ALT 2900FT

TAF (pilot weather forecast)

Closest forecast is Grande Prairie Airport, 63.1 nm (116.8 km) NNE. Retrieved 2019/08/23 01:42 UTC (0 seconds ago):

TAF CYQU 230038Z 2301/2313 27014KT P6SM FEW070 FM230600 22008KT P6SM FEW200 FM230900 VRB03KT P6SM SCT120 BKN200 RMK NXT FCST BY 230700Z